Nautilus Survey — LIXR — position and weather

sailwx.info

Track history (hours):
 
Tides and Currents Weather Stations Pressure Air Temp Water Temp Dewpoint Dewpoint Depression Visibility Wind Speed Wind Dir Waves Ship Positions

Nautilus Survey

Last reported at 2014-Jul-25 10:33 UTC. Time now 2014-Jul-31 15:34 UTC.
Position N 68°02' E 015°16'.

Length 23 m; draft 2 m.

Type: Tow > 200 m length. MMSI: 259464000.

Date/timePositionNaut miles runAvg speedWind from/ knotsBaromVisibWave heightAir tempDewpointWater temp
2014-Jul-25 10:33N 68°02' E 015°16'20 6.5
2014-Jul-25 07:28N 68°18' E 015°48'  
2014-Jul-18 17:09N 67°40' E 014°31'4 6.1
2014-Jul-18 16:33N 67°36' E 014°31'6 6.3
2014-Jul-18 15:33N 67°30' E 014°29'6 6.5
2014-Jul-18 14:33N 67°24' E 014°26'6 6.1
2014-Jul-18 13:33N 67°18' E 014°23'1 0.5
2014-Jul-18 12:33N 67°17' E 014°24'0 0.0
2014-Jul-18 11:33N 67°17' E 014°24'3 3.3
2014-Jul-18 10:33N 67°16' E 014°17'7 6.6
2014-Jul-18 09:33N 67°11' E 014°05'8 6.3
2014-Jul-18 08:21N 67°04' E 013°55'6 6.7
2014-Jul-18 07:24N 67°01' E 013°41'36 6.1
2014-Jul-18 01:29N 66°29' E 012°60'7 7.4
2014-Jul-18 00:33N 66°22' E 012°58'16 7.0
2014-Jul-17 22:12N 66°07' E 012°44'11 0.2
2014-Jul-15 19:33N 66°03' E 012°19'19 9.3
2014-Jul-15 17:30N 66°20' E 012°40'6 6.3
2014-Jul-15 16:33N 66°24' E 012°50'  
Track history (hours):
 
Tides and Currents Weather Stations Pressure Air Temp Water Temp Dewpoint Dewpoint Depression Visibility Wind Speed Wind Dir Waves Ship Positions

Nautilus Survey

Last reported at 2014-Jul-25 10:33 UTC. Time now 2014-Jul-31 15:34 UTC.
Position N 68°02' E 015°16'.

Length 23 m; draft 2 m.

Type: Tow > 200 m length. MMSI: 259464000.

Date/timePositionNaut miles runAvg speedWind from/ knotsBaromVisibWave heightAir tempDewpointWater temp
2014-Jul-25 10:33N 68°02' E 015°16'20 6.5
2014-Jul-25 07:28N 68°18' E 015°48'  
2014-Jul-18 17:09N 67°40' E 014°31'4 6.1
2014-Jul-18 16:33N 67°36' E 014°31'6 6.3
2014-Jul-18 15:33N 67°30' E 014°29'6 6.5
2014-Jul-18 14:33N 67°24' E 014°26'6 6.1
2014-Jul-18 13:33N 67°18' E 014°23'1 0.5
2014-Jul-18 12:33N 67°17' E 014°24'0 0.0
2014-Jul-18 11:33N 67°17' E 014°24'3 3.3
2014-Jul-18 10:33N 67°16' E 014°17'7 6.6
2014-Jul-18 09:33N 67°11' E 014°05'8 6.3
2014-Jul-18 08:21N 67°04' E 013°55'6 6.7
2014-Jul-18 07:24N 67°01' E 013°41'36 6.1
2014-Jul-18 01:29N 66°29' E 012°60'7 7.4
2014-Jul-18 00:33N 66°22' E 012°58'16 7.0
2014-Jul-17 22:12N 66°07' E 012°44'11 0.2
2014-Jul-15 19:33N 66°03' E 012°19'19 9.3
2014-Jul-15 17:30N 66°20' E 012°40'6 6.3
2014-Jul-15 16:33N 66°24' E 012°50'  

Dump ship's entire track history